sensor_id;sensor_type;location;lat;lon;timestamp;P1;durP1;ratioP1;P2;durP2;ratioP2
19016;SDS011;9641;51.494;6.670;2023-02-01T00:00:28;15.93;;;4.80;;
19016;SDS011;9641;51.494;6.670;2023-02-01T00:02:55;18.60;;;4.17;;
19016;SDS011;9641;51.494;6.670;2023-02-01T00:05:21;16.20;;;4.43;;
19016;SDS011;9641;51.494;6.670;2023-02-01T00:07:48;19.13;;;5.17;;
19016;SDS011;9641;51.494;6.670;2023-02-01T00:10:15;18.07;;;3.80;;
19016;SDS011;9641;51.494;6.670;2023-02-01T00:12:44;17.23;;;4.23;;
19016;SDS011;9641;51.494;6.670;2023-02-01T00:15:11;18.10;;;5.00;;
19016;SDS011;9641;51.494;6.670;2023-02-01T00:17:38;12.60;;;3.77;;
19016;SDS011;9641;51.494;6.670;2023-02-01T00:20:05;15.47;;;4.07;;
19016;SDS011;9641;51.494;6.670;2023-02-01T00:22:33;13.97;;;3.63;;
19016;SDS011;9641;51.494;6.670;2023-02-01T00:25:00;13.67;;;3.67;;
19016;SDS011;9641;51.494;6.670;2023-02-01T00:27:27;16.17;;;3.67;;
19016;SDS011;9641;51.494;6.670;2023-02-01T00:29:55;9.80;;;3.30;;
19016;SDS011;9641;51.494;6.670;2023-02-01T00:32:22;12.53;;;3.53;;
19016;SDS011;9641;51.494;6.670;2023-02-01T00:34:49;20.00;;;3.50;;
19016;SDS011;9641;51.494;6.670;2023-02-01T00:37:15;19.30;;;3.60;;
19016;SDS011;9641;51.494;6.670;2023-02-01T00:39:42;12.23;;;3.57;;
19016;SDS011;9641;51.494;6.670;2023-02-01T00:42:09;14.07;;;4.70;;
19016;SDS011;9641;51.494;6.670;2023-02-01T00:44:36;15.47;;;3.83;;
19016;SDS011;9641;51.494;6.670;2023-02-01T00:47:04;13.97;;;3.90;;
19016;SDS011;9641;51.494;6.670;2023-02-01T00:49:31;14.80;;;4.53;;
19016;SDS011;9641;51.494;6.670;2023-02-01T00:51:57;21.07;;;4.93;;
19016;SDS011;9641;51.494;6.670;2023-02-01T00:54:24;17.30;;;4.90;;
19016;SDS011;9641;51.494;6.670;2023-02-01T00:56:51;19.87;;;5.00;;
19016;SDS011;9641;51.494;6.670;2023-02-01T00:59:18;13.63;;;5.20;;
19016;SDS011;9641;51.494;6.670;2023-02-01T01:01:45;19.33;;;5.50;;
19016;SDS011;9641;51.494;6.670;2023-02-01T01:04:13;18.30;;;5.17;;
19016;SDS011;9641;51.494;6.670;2023-02-01T01:06:40;21.67;;;5.83;;
19016;SDS011;9641;51.494;6.670;2023-02-01T01:09:07;17.07;;;5.40;;
19016;SDS011;9641;51.494;6.670;2023-02-01T01:11:35;16.90;;;5.47;;
19016;SDS011;9641;51.494;6.670;2023-02-01T01:14:05;13.47;;;4.80;;
19016;SDS011;9641;51.494;6.670;2023-02-01T01:16:34;16.67;;;5.43;;
19016;SDS011;9641;51.494;6.670;2023-02-01T01:19:01;19.80;;;5.13;;
19016;SDS011;9641;51.494;6.670;2023-02-01T01:21:30;16.83;;;5.03;;
19016;SDS011;9641;51.494;6.670;2023-02-01T01:23:57;16.73;;;5.13;;
19016;SDS011;9641;51.494;6.670;2023-02-01T01:26:25;22.40;;;5.50;;
19016;SDS011;9641;51.494;6.670;2023-02-01T01:28:54;17.80;;;4.97;;
19016;SDS011;9641;51.494;6.670;2023-02-01T01:31:22;15.13;;;4.83;;
19016;SDS011;9641;51.494;6.670;2023-02-01T01:33:49;12.63;;;4.77;;
19016;SDS011;9641;51.494;6.670;2023-02-01T01:36:17;15.30;;;5.17;;
19016;SDS011;9641;51.494;6.670;2023-02-01T01:38:46;18.10;;;5.43;;
19016;SDS011;9641;51.494;6.670;2023-02-01T01:41:15;16.03;;;4.63;;
19016;SDS011;9641;51.494;6.670;2023-02-01T01:43:46;17.57;;;5.10;;
19016;SDS011;9641;51.494;6.670;2023-02-01T01:46:17;19.43;;;4.50;;
19016;SDS011;9641;51.494;6.670;2023-02-01T01:48:45;15.63;;;5.17;;
19016;SDS011;9641;51.494;6.670;2023-02-01T01:51:17;20.40;;;4.73;;
19016;SDS011;9641;51.494;6.670;2023-02-01T01:53:50;17.40;;;4.30;;
19016;SDS011;9641;51.494;6.670;2023-02-01T01:56:23;11.43;;;3.87;;
19016;SDS011;9641;51.494;6.670;2023-02-01T01:58:53;21.63;;;4.77;;
19016;SDS011;9641;51.494;6.670;2023-02-01T02:01:20;13.83;;;4.00;;
19016;SDS011;9641;51.494;6.670;2023-02-01T02:03:47;11.17;;;3.67;;
19016;SDS011;9641;51.494;6.670;2023-02-01T02:06:18;18.97;;;3.97;;
19016;SDS011;9641;51.494;6.670;2023-02-01T02:08:54;17.77;;;3.67;;
19016;SDS011;9641;51.494;6.670;2023-02-01T02:11:21;17.63;;;3.93;;
19016;SDS011;9641;51.494;6.670;2023-02-01T02:13:48;16.07;;;4.00;;
19016;SDS011;9641;51.494;6.670;2023-02-01T02:16:27;12.77;;;5.00;;
19016;SDS011;9641;51.494;6.670;2023-02-01T02:19:13;20.63;;;3.63;;
19016;SDS011;9641;51.494;6.670;2023-02-01T02:24:59;18.10;;;4.20;;
19016;SDS011;9641;51.494;6.670;2023-02-01T02:27:50;10.70;;;3.50;;
19016;SDS011;9641;51.494;6.670;2023-02-01T02:30:33;15.07;;;3.63;;
19016;SDS011;9641;51.494;6.670;2023-02-01T02:36:08;12.17;;;3.30;;
19016;SDS011;9641;51.494;6.670;2023-02-01T02:38:40;23.40;;;3.80;;
19016;SDS011;9641;51.494;6.670;2023-02-01T02:41:13;20.10;;;3.60;;
19016;SDS011;9641;51.494;6.670;2023-02-01T02:44:08;15.17;;;3.37;;
19016;SDS011;9641;51.494;6.670;2023-02-01T02:46:57;17.10;;;3.20;;
19016;SDS011;9641;51.494;6.670;2023-02-01T02:49:51;17.83;;;3.80;;
19016;SDS011;9641;51.494;6.670;2023-02-01T02:52:36;14.70;;;3.20;;
19016;SDS011;9641;51.494;6.670;2023-02-01T02:55:25;18.73;;;3.83;;
19016;SDS011;9641;51.494;6.670;2023-02-01T02:57:55;9.57;;;2.83;;
19016;SDS011;9641;51.494;6.670;2023-02-01T03:00:41;15.17;;;3.50;;
19016;SDS011;9641;51.494;6.670;2023-02-01T03:03:27;13.07;;;3.93;;
19016;SDS011;9641;51.494;6.670;2023-02-01T03:06:14;11.30;;;3.70;;
19016;SDS011;9641;51.494;6.670;2023-02-01T03:08:43;12.40;;;3.27;;
19016;SDS011;9641;51.494;6.670;2023-02-01T03:11:11;12.30;;;2.80;;
19016;SDS011;9641;51.494;6.670;2023-02-01T03:13:42;17.43;;;4.37;;
19016;SDS011;9641;51.494;6.670;2023-02-01T03:16:11;9.70;;;3.07;;
19016;SDS011;9641;51.494;6.670;2023-02-01T03:18:45;13.93;;;3.77;;
19016;SDS011;9641;51.494;6.670;2023-02-01T03:21:19;14.23;;;3.70;;
19016;SDS011;9641;51.494;6.670;2023-02-01T03:23:49;15.80;;;3.90;;
19016;SDS011;9641;51.494;6.670;2023-02-01T03:26:19;10.47;;;2.90;;
19016;SDS011;9641;51.494;6.670;2023-02-01T03:28:49;13.37;;;3.53;;
19016;SDS011;9641;51.494;6.670;2023-02-01T03:31:22;13.57;;;3.20;;
19016;SDS011;9641;51.494;6.670;2023-02-01T03:33:49;24.67;;;3.57;;
19016;SDS011;9641;51.494;6.670;2023-02-01T03:36:20;20.30;;;4.60;;
19016;SDS011;9641;51.494;6.670;2023-02-01T03:38:55;19.33;;;4.93;;
19016;SDS011;9641;51.494;6.670;2023-02-01T03:41:32;17.83;;;3.83;;
19016;SDS011;9641;51.494;6.670;2023-02-01T03:44:05;20.20;;;3.57;;
19016;SDS011;9641;51.494;6.670;2023-02-01T03:46:39;14.73;;;3.13;;
19016;SDS011;9641;51.494;6.670;2023-02-01T03:49:13;17.33;;;3.87;;
19016;SDS011;9641;51.494;6.670;2023-02-01T03:51:47;23.00;;;4.10;;
19016;SDS011;9641;51.494;6.670;2023-02-01T03:54:17;19.27;;;4.13;;
19016;SDS011;9641;51.494;6.670;2023-02-01T03:56:45;11.23;;;3.27;;
19016;SDS011;9641;51.494;6.670;2023-02-01T03:59:14;15.37;;;3.43;;
19016;SDS011;9641;51.494;6.670;2023-02-01T04:01:41;20.37;;;4.00;;
19016;SDS011;9641;51.494;6.670;2023-02-01T04:04:08;18.07;;;3.77;;
19016;SDS011;9641;51.494;6.670;2023-02-01T04:06:36;15.60;;;4.00;;
19016;SDS011;9641;51.494;6.670;2023-02-01T04:09:05;22.53;;;3.97;;
19016;SDS011;9641;51.494;6.670;2023-02-01T04:11:32;23.27;;;4.60;;
19016;SDS011;9641;51.494;6.670;2023-02-01T04:13:59;18.20;;;4.60;;
19016;SDS011;9641;51.494;6.670;2023-02-01T04:16:29;20.53;;;4.67;;
19016;SDS011;9641;51.494;6.670;2023-02-01T04:18:56;26.47;;;5.10;;
19016;SDS011;9641;51.494;6.670;2023-02-01T04:21:24;16.67;;;3.83;;
19016;SDS011;9641;51.494;6.670;2023-02-01T04:23:51;22.03;;;3.70;;
19016;SDS011;9641;51.494;6.670;2023-02-01T04:26:20;19.47;;;3.47;;
19016;SDS011;9641;51.494;6.670;2023-02-01T04:28:47;11.20;;;2.90;;
19016;SDS011;9641;51.494;6.670;2023-02-01T04:31:14;24.57;;;4.03;;
19016;SDS011;9641;51.494;6.670;2023-02-01T04:33:41;22.30;;;4.30;;
19016;SDS011;9641;51.494;6.670;2023-02-01T04:36:10;20.17;;;4.07;;
19016;SDS011;9641;51.494;6.670;2023-02-01T04:38:37;8.67;;;3.50;;
19016;SDS011;9641;51.494;6.670;2023-02-01T04:41:04;18.93;;;3.50;;
19016;SDS011;9641;51.494;6.670;2023-02-01T04:43:32;15.90;;;4.17;;
19016;SDS011;9641;51.494;6.670;2023-02-01T04:45:59;20.70;;;4.10;;
19016;SDS011;9641;51.494;6.670;2023-02-01T04:48:26;22.33;;;4.17;;
19016;SDS011;9641;51.494;6.670;2023-02-01T04:50:52;12.23;;;3.10;;
19016;SDS011;9641;51.494;6.670;2023-02-01T04:53:19;16.77;;;3.60;;
19016;SDS011;9641;51.494;6.670;2023-02-01T04:55:48;22.07;;;3.77;;
19016;SDS011;9641;51.494;6.670;2023-02-01T04:58:16;17.33;;;3.73;;
19016;SDS011;9641;51.494;6.670;2023-02-01T05:00:44;16.50;;;3.60;;
19016;SDS011;9641;51.494;6.670;2023-02-01T05:03:11;28.03;;;4.80;;
19016;SDS011;9641;51.494;6.670;2023-02-01T05:05:37;20.90;;;4.20;;
19016;SDS011;9641;51.494;6.670;2023-02-01T05:08:04;20.47;;;4.70;;
19016;SDS011;9641;51.494;6.670;2023-02-01T05:10:31;18.07;;;3.30;;
19016;SDS011;9641;51.494;6.670;2023-02-01T05:12:58;23.73;;;4.10;;
19016;SDS011;9641;51.494;6.670;2023-02-01T05:15:44;24.43;;;3.97;;
19016;SDS011;9641;51.494;6.670;2023-02-01T05:18:11;20.10;;;3.47;;
19016;SDS011;9641;51.494;6.670;2023-02-01T05:20:38;19.17;;;3.20;;
19016;SDS011;9641;51.494;6.670;2023-02-01T05:23:05;20.70;;;3.40;;
19016;SDS011;9641;51.494;6.670;2023-02-01T05:25:32;25.30;;;3.77;;
19016;SDS011;9641;51.494;6.670;2023-02-01T05:27:58;21.73;;;3.90;;
19016;SDS011;9641;51.494;6.670;2023-02-01T05:30:25;28.57;;;3.77;;
19016;SDS011;9641;51.494;6.670;2023-02-01T05:32:53;14.33;;;3.83;;
19016;SDS011;9641;51.494;6.670;2023-02-01T05:35:20;14.80;;;3.70;;
19016;SDS011;9641;51.494;6.670;2023-02-01T05:37:48;25.57;;;3.80;;
19016;SDS011;9641;51.494;6.670;2023-02-01T05:40:14;17.90;;;3.60;;
19016;SDS011;9641;51.494;6.670;2023-02-01T05:42:42;18.70;;;4.10;;
19016;SDS011;9641;51.494;6.670;2023-02-01T05:45:09;18.17;;;3.77;;
19016;SDS011;9641;51.494;6.670;2023-02-01T05:47:36;17.33;;;3.73;;
19016;SDS011;9641;51.494;6.670;2023-02-01T05:50:05;12.37;;;3.57;;
19016;SDS011;9641;51.494;6.670;2023-02-01T05:52:32;14.10;;;3.53;;
19016;SDS011;9641;51.494;6.670;2023-02-01T05:54:59;13.70;;;3.67;;
19016;SDS011;9641;51.494;6.670;2023-02-01T05:57:26;21.43;;;4.00;;
19016;SDS011;9641;51.494;6.670;2023-02-01T05:59:53;8.83;;;2.77;;
19016;SDS011;9641;51.494;6.670;2023-02-01T06:02:20;17.30;;;3.10;;
19016;SDS011;9641;51.494;6.670;2023-02-01T06:04:49;17.63;;;3.73;;
19016;SDS011;9641;51.494;6.670;2023-02-01T06:07:17;21.60;;;4.10;;
19016;SDS011;9641;51.494;6.670;2023-02-01T06:09:44;9.27;;;3.57;;
19016;SDS011;9641;51.494;6.670;2023-02-01T06:12:11;20.03;;;3.27;;
19016;SDS011;9641;51.494;6.670;2023-02-01T06:14:39;16.07;;;3.90;;
19016;SDS011;9641;51.494;6.670;2023-02-01T06:17:06;19.53;;;4.03;;
19016;SDS011;9641;51.494;6.670;2023-02-01T06:19:33;15.87;;;4.00;;
19016;SDS011;9641;51.494;6.670;2023-02-01T06:22:00;14.23;;;3.80;;
19016;SDS011;9641;51.494;6.670;2023-02-01T06:24:28;13.13;;;3.20;;
19016;SDS011;9641;51.494;6.670;2023-02-01T06:26:55;20.53;;;4.57;;
19016;SDS011;9641;51.494;6.670;2023-02-01T06:29:22;23.83;;;4.57;;
19016;SDS011;9641;51.494;6.670;2023-02-01T06:31:49;25.97;;;4.40;;
19016;SDS011;9641;51.494;6.670;2023-02-01T06:34:16;18.50;;;4.27;;
19016;SDS011;9641;51.494;6.670;2023-02-01T06:36:43;22.73;;;3.87;;
19016;SDS011;9641;51.494;6.670;2023-02-01T06:39:10;15.37;;;3.03;;
19016;SDS011;9641;51.494;6.670;2023-02-01T06:41:42;14.43;;;3.33;;
19016;SDS011;9641;51.494;6.670;2023-02-01T06:44:09;23.23;;;3.83;;
19016;SDS011;9641;51.494;6.670;2023-02-01T06:46:35;19.80;;;4.03;;
19016;SDS011;9641;51.494;6.670;2023-02-01T06:49:02;20.67;;;3.37;;
19016;SDS011;9641;51.494;6.670;2023-02-01T06:51:29;19.50;;;4.20;;
19016;SDS011;9641;51.494;6.670;2023-02-01T06:53:56;22.30;;;4.10;;
19016;SDS011;9641;51.494;6.670;2023-02-01T06:56:23;15.90;;;3.23;;
19016;SDS011;9641;51.494;6.670;2023-02-01T06:58:52;20.43;;;4.17;;
19016;SDS011;9641;51.494;6.670;2023-02-01T07:01:19;15.13;;;3.60;;
19016;SDS011;9641;51.494;6.670;2023-02-01T07:03:47;12.73;;;4.23;;
19016;SDS011;9641;51.494;6.670;2023-02-01T07:06:15;14.33;;;3.83;;
19016;SDS011;9641;51.494;6.670;2023-02-01T07:08:43;26.10;;;3.93;;
19016;SDS011;9641;51.494;6.670;2023-02-01T07:11:11;12.47;;;3.70;;
19016;SDS011;9641;51.494;6.670;2023-02-01T07:13:39;13.20;;;3.83;;
19016;SDS011;9641;51.494;6.670;2023-02-01T07:16:09;12.83;;;3.73;;
19016;SDS011;9641;51.494;6.670;2023-02-01T07:18:37;24.47;;;5.03;;
19016;SDS011;9641;51.494;6.670;2023-02-01T07:21:04;27.77;;;4.80;;
19016;SDS011;9641;51.494;6.670;2023-02-01T07:23:31;17.30;;;3.90;;
19016;SDS011;9641;51.494;6.670;2023-02-01T07:25:59;14.20;;;3.50;;
19016;SDS011;9641;51.494;6.670;2023-02-01T07:28:27;23.17;;;3.67;;
19016;SDS011;9641;51.494;6.670;2023-02-01T07:31:01;17.93;;;3.87;;
19016;SDS011;9641;51.494;6.670;2023-02-01T07:33:29;13.47;;;3.77;;
19016;SDS011;9641;51.494;6.670;2023-02-01T07:35:56;17.60;;;4.00;;
19016;SDS011;9641;51.494;6.670;2023-02-01T07:38:23;14.97;;;4.03;;
19016;SDS011;9641;51.494;6.670;2023-02-01T07:40:50;17.93;;;4.30;;
19016;SDS011;9641;51.494;6.670;2023-02-01T07:43:17;19.37;;;4.03;;
19016;SDS011;9641;51.494;6.670;2023-02-01T07:45:49;17.57;;;4.30;;
19016;SDS011;9641;51.494;6.670;2023-02-01T07:48:17;23.77;;;4.57;;
19016;SDS011;9641;51.494;6.670;2023-02-01T07:50:45;20.70;;;4.30;;
19016;SDS011;9641;51.494;6.670;2023-02-01T07:53:12;20.60;;;4.07;;
19016;SDS011;9641;51.494;6.670;2023-02-01T07:55:39;21.00;;;4.00;;
19016;SDS011;9641;51.494;6.670;2023-02-01T07:58:06;18.23;;;3.93;;
19016;SDS011;9641;51.494;6.670;2023-02-01T08:00:33;15.60;;;4.97;;
19016;SDS011;9641;51.494;6.670;2023-02-01T08:03:17;22.20;;;4.90;;
19016;SDS011;9641;51.494;6.670;2023-02-01T08:05:45;11.87;;;3.87;;
19016;SDS011;9641;51.494;6.670;2023-02-01T08:08:13;27.10;;;4.50;;
19016;SDS011;9641;51.494;6.670;2023-02-01T08:10:40;20.97;;;4.53;;
19016;SDS011;9641;51.494;6.670;2023-02-01T08:13:13;20.97;;;4.23;;
19016;SDS011;9641;51.494;6.670;2023-02-01T08:15:40;24.90;;;4.67;;
19016;SDS011;9641;51.494;6.670;2023-02-01T08:18:06;17.57;;;3.60;;
19016;SDS011;9641;51.494;6.670;2023-02-01T08:20:35;13.47;;;3.97;;
19016;SDS011;9641;51.494;6.670;2023-02-01T08:23:06;27.80;;;4.57;;
19016;SDS011;9641;51.494;6.670;2023-02-01T08:25:33;22.93;;;4.77;;
19016;SDS011;9641;51.494;6.670;2023-02-01T08:28:01;17.07;;;3.63;;
19016;SDS011;9641;51.494;6.670;2023-02-01T08:30:28;20.10;;;4.27;;
19016;SDS011;9641;51.494;6.670;2023-02-01T08:32:55;23.70;;;3.97;;
19016;SDS011;9641;51.494;6.670;2023-02-01T08:35:22;16.13;;;3.90;;
19016;SDS011;9641;51.494;6.670;2023-02-01T08:37:49;23.90;;;4.57;;
19016;SDS011;9641;51.494;6.670;2023-02-01T08:40:18;24.83;;;4.70;;
19016;SDS011;9641;51.494;6.670;2023-02-01T08:42:46;12.07;;;3.40;;
19016;SDS011;9641;51.494;6.670;2023-02-01T08:45:19;19.93;;;3.90;;
19016;SDS011;9641;51.494;6.670;2023-02-01T08:47:49;22.60;;;3.90;;
19016;SDS011;9641;51.494;6.670;2023-02-01T08:50:16;16.03;;;4.23;;
19016;SDS011;9641;51.494;6.670;2023-02-01T08:52:44;18.57;;;3.70;;
19016;SDS011;9641;51.494;6.670;2023-02-01T08:55:11;32.77;;;4.63;;
19016;SDS011;9641;51.494;6.670;2023-02-01T08:57:40;25.03;;;4.47;;
19016;SDS011;9641;51.494;6.670;2023-02-01T09:00:09;15.93;;;3.60;;
19016;SDS011;9641;51.494;6.670;2023-02-01T09:02:38;18.90;;;4.57;;
19016;SDS011;9641;51.494;6.670;2023-02-01T09:05:06;19.20;;;4.43;;
19016;SDS011;9641;51.494;6.670;2023-02-01T09:07:33;19.00;;;4.10;;
19016;SDS011;9641;51.494;6.670;2023-02-01T09:10:00;23.70;;;4.53;;
19016;SDS011;9641;51.494;6.670;2023-02-01T09:12:27;18.57;;;4.43;;
19016;SDS011;9641;51.494;6.670;2023-02-01T09:14:56;14.00;;;3.53;;
19016;SDS011;9641;51.494;6.670;2023-02-01T09:17:24;31.90;;;4.07;;
19016;SDS011;9641;51.494;6.670;2023-02-01T09:19:51;17.50;;;3.80;;
19016;SDS011;9641;51.494;6.670;2023-02-01T09:22:18;20.83;;;3.60;;
19016;SDS011;9641;51.494;6.670;2023-02-01T09:24:45;15.20;;;3.53;;
19016;SDS011;9641;51.494;6.670;2023-02-01T09:27:12;18.67;;;4.67;;
19016;SDS011;9641;51.494;6.670;2023-02-01T09:29:39;14.27;;;3.67;;
19016;SDS011;9641;51.494;6.670;2023-02-01T09:32:07;15.20;;;4.00;;
19016;SDS011;9641;51.494;6.670;2023-02-01T09:34:34;19.57;;;3.93;;
19016;SDS011;9641;51.494;6.670;2023-02-01T09:37:01;12.40;;;4.10;;
19016;SDS011;9641;51.494;6.670;2023-02-01T09:39:28;20.47;;;3.97;;
19016;SDS011;9641;51.494;6.670;2023-02-01T09:42:01;21.10;;;4.33;;
19016;SDS011;9641;51.494;6.670;2023-02-01T09:44:45;14.03;;;3.93;;
19016;SDS011;9641;51.494;6.670;2023-02-01T09:47:26;17.70;;;4.20;;
19016;SDS011;9641;51.494;6.670;2023-02-01T09:49:58;17.93;;;4.03;;
19016;SDS011;9641;51.494;6.670;2023-02-01T09:52:38;29.67;;;4.63;;
19016;SDS011;9641;51.494;6.670;2023-02-01T09:55:11;19.23;;;4.43;;
19016;SDS011;9641;51.494;6.670;2023-02-01T09:57:43;17.17;;;4.00;;
19016;SDS011;9641;51.494;6.670;2023-02-01T10:00:16;26.10;;;3.97;;
19016;SDS011;9641;51.494;6.670;2023-02-01T10:02:50;14.07;;;3.87;;
19016;SDS011;9641;51.494;6.670;2023-02-01T10:05:21;16.30;;;4.63;;
19016;SDS011;9641;51.494;6.670;2023-02-01T10:08:00;21.13;;;4.13;;
19016;SDS011;9641;51.494;6.670;2023-02-01T10:10:33;17.17;;;4.33;;
19016;SDS011;9641;51.494;6.670;2023-02-01T10:13:10;18.17;;;4.00;;
19016;SDS011;9641;51.494;6.670;2023-02-01T10:16:02;15.70;;;3.37;;
19016;SDS011;9641;51.494;6.670;2023-02-01T10:18:48;21.87;;;4.07;;
19016;SDS011;9641;51.494;6.670;2023-02-01T10:21:27;16.70;;;3.50;;
19016;SDS011;9641;51.494;6.670;2023-02-01T10:26:59;12.63;;;3.07;;
19016;SDS011;9641;51.494;6.670;2023-02-01T10:29:31;19.33;;;4.10;;
19016;SDS011;9641;51.494;6.670;2023-02-01T10:32:02;14.43;;;4.37;;
19016;SDS011;9641;51.494;6.670;2023-02-01T10:34:36;18.40;;;4.03;;
19016;SDS011;9641;51.494;6.670;2023-02-01T10:37:08;13.83;;;3.90;;
19016;SDS011;9641;51.494;6.670;2023-02-01T10:39:44;20.17;;;4.10;;
19016;SDS011;9641;51.494;6.670;2023-02-01T10:42:13;17.60;;;4.17;;
19016;SDS011;9641;51.494;6.670;2023-02-01T10:44:42;15.50;;;3.50;;
19016;SDS011;9641;51.494;6.670;2023-02-01T10:47:14;14.83;;;3.30;;
19016;SDS011;9641;51.494;6.670;2023-02-01T10:49:47;26.43;;;4.37;;
19016;SDS011;9641;51.494;6.670;2023-02-01T10:52:24;14.13;;;3.63;;
19016;SDS011;9641;51.494;6.670;2023-02-01T10:58:03;18.83;;;4.10;;
19016;SDS011;9641;51.494;6.670;2023-02-01T11:00:38;24.23;;;4.10;;
19016;SDS011;9641;51.494;6.670;2023-02-01T11:03:20;18.73;;;4.93;;
19016;SDS011;9641;51.494;6.670;2023-02-01T11:05:56;14.73;;;3.60;;
19016;SDS011;9641;51.494;6.670;2023-02-01T11:08:23;16.67;;;4.00;;
19016;SDS011;9641;51.494;6.670;2023-02-01T11:10:56;14.73;;;3.90;;
19016;SDS011;9641;51.494;6.670;2023-02-01T11:13:27;17.13;;;3.57;;
19016;SDS011;9641;51.494;6.670;2023-02-01T11:15:57;13.40;;;4.30;;
19016;SDS011;9641;51.494;6.670;2023-02-01T11:18:25;18.40;;;3.40;;
19016;SDS011;9641;51.494;6.670;2023-02-01T11:20:55;12.27;;;3.43;;
19016;SDS011;9641;51.494;6.670;2023-02-01T11:23:23;15.67;;;3.40;;
19016;SDS011;9641;51.494;6.670;2023-02-01T11:25:53;18.93;;;3.90;;
19016;SDS011;9641;51.494;6.670;2023-02-01T11:28:23;13.93;;;3.53;;
19016;SDS011;9641;51.494;6.670;2023-02-01T11:30:51;19.80;;;4.37;;
19016;SDS011;9641;51.494;6.670;2023-02-01T11:33:23;24.53;;;4.57;;
19016;SDS011;9641;51.494;6.670;2023-02-01T11:35:56;22.63;;;4.20;;
19016;SDS011;9641;51.494;6.670;2023-02-01T11:38:26;13.40;;;3.67;;
19016;SDS011;9641;51.494;6.670;2023-02-01T11:40:55;17.03;;;4.17;;
19016;SDS011;9641;51.494;6.670;2023-02-01T11:43:37;22.80;;;3.80;;
19016;SDS011;9641;51.494;6.670;2023-02-01T11:46:08;19.83;;;3.50;;
19016;SDS011;9641;51.494;6.670;2023-02-01T11:48:50;14.30;;;3.33;;
19016;SDS011;9641;51.494;6.670;2023-02-01T11:51:31;16.37;;;3.43;;
19016;SDS011;9641;51.494;6.670;2023-02-01T11:54:10;13.67;;;3.90;;
19016;SDS011;9641;51.494;6.670;2023-02-01T11:56:53;15.13;;;4.07;;
19016;SDS011;9641;51.494;6.670;2023-02-01T11:59:31;18.13;;;3.73;;
19016;SDS011;9641;51.494;6.670;2023-02-01T12:02:19;12.73;;;3.10;;
19016;SDS011;9641;51.494;6.670;2023-02-01T12:05:08;13.90;;;4.07;;
19016;SDS011;9641;51.494;6.670;2023-02-01T12:08:01;13.97;;;3.27;;
19016;SDS011;9641;51.494;6.670;2023-02-01T12:10:39;20.20;;;4.23;;
19016;SDS011;9641;51.494;6.670;2023-02-01T12:13:14;16.67;;;3.57;;
19016;SDS011;9641;51.494;6.670;2023-02-01T12:15:56;20.27;;;3.90;;
19016;SDS011;9641;51.494;6.670;2023-02-01T12:18:38;19.80;;;3.27;;
19016;SDS011;9641;51.494;6.670;2023-02-01T12:21:22;16.60;;;3.50;;
19016;SDS011;9641;51.494;6.670;2023-02-01T12:24:15;14.90;;;4.10;;
19016;SDS011;9641;51.494;6.670;2023-02-01T12:27:07;15.60;;;3.10;;
19016;SDS011;9641;51.494;6.670;2023-02-01T12:29:47;11.37;;;3.10;;
19016;SDS011;9641;51.494;6.670;2023-02-01T12:32:30;15.30;;;3.20;;
19016;SDS011;9641;51.494;6.670;2023-02-01T12:35:13;10.00;;;3.03;;
19016;SDS011;9641;51.494;6.670;2023-02-01T12:37:51;11.80;;;3.27;;
19016;SDS011;9641;51.494;6.670;2023-02-01T12:40:38;10.33;;;2.57;;
19016;SDS011;9641;51.494;6.670;2023-02-01T12:43:15;8.87;;;2.63;;
19016;SDS011;9641;51.494;6.670;2023-02-01T12:45:48;17.63;;;3.33;;
19016;SDS011;9641;51.494;6.670;2023-02-01T12:48:28;15.10;;;3.00;;
19016;SDS011;9641;51.494;6.670;2023-02-01T12:50:59;19.60;;;3.10;;
19016;SDS011;9641;51.494;6.670;2023-02-01T12:53:30;20.23;;;3.63;;
19016;SDS011;9641;51.494;6.670;2023-02-01T12:56:07;12.97;;;4.13;;
19016;SDS011;9641;51.494;6.670;2023-02-01T12:58:40;12.37;;;3.17;;
19016;SDS011;9641;51.494;6.670;2023-02-01T13:01:12;15.67;;;3.27;;
19016;SDS011;9641;51.494;6.670;2023-02-01T13:03:44;15.50;;;3.60;;
19016;SDS011;9641;51.494;6.670;2023-02-01T13:06:21;20.93;;;3.90;;
19016;SDS011;9641;51.494;6.670;2023-02-01T13:08:53;12.33;;;3.00;;
19016;SDS011;9641;51.494;6.670;2023-02-01T13:11:29;11.10;;;3.77;;
19016;SDS011;9641;51.494;6.670;2023-02-01T13:13:59;10.87;;;3.00;;
19016;SDS011;9641;51.494;6.670;2023-02-01T13:16:30;15.73;;;3.33;;
19016;SDS011;9641;51.494;6.670;2023-02-01T13:19:02;22.40;;;3.53;;
19016;SDS011;9641;51.494;6.670;2023-02-01T13:21:36;20.17;;;3.37;;
19016;SDS011;9641;51.494;6.670;2023-02-01T13:24:10;17.47;;;2.63;;
19016;SDS011;9641;51.494;6.670;2023-02-01T13:26:53;17.90;;;2.87;;
19016;SDS011;9641;51.494;6.670;2023-02-01T13:29:21;21.40;;;3.33;;
19016;SDS011;9641;51.494;6.670;2023-02-01T13:32:00;16.40;;;2.50;;
19016;SDS011;9641;51.494;6.670;2023-02-01T13:34:49;16.70;;;2.70;;
19016;SDS011;9641;51.494;6.670;2023-02-01T13:37:33;10.37;;;3.10;;
19016;SDS011;9641;51.494;6.670;2023-02-01T13:40:33;16.17;;;2.97;;
19016;SDS011;9641;51.494;6.670;2023-02-01T13:43:07;11.87;;;2.73;;
19016;SDS011;9641;51.494;6.670;2023-02-01T13:45:42;15.83;;;3.13;;
19016;SDS011;9641;51.494;6.670;2023-02-01T13:48:18;12.77;;;2.87;;
19016;SDS011;9641;51.494;6.670;2023-02-01T13:50:50;10.20;;;2.67;;
19016;SDS011;9641;51.494;6.670;2023-02-01T13:53:21;11.90;;;2.87;;
19016;SDS011;9641;51.494;6.670;2023-02-01T13:55:55;11.87;;;3.30;;
19016;SDS011;9641;51.494;6.670;2023-02-01T13:58:30;11.10;;;2.93;;
19016;SDS011;9641;51.494;6.670;2023-02-01T14:04:02;15.40;;;2.40;;
19016;SDS011;9641;51.494;6.670;2023-02-01T14:06:43;12.80;;;2.77;;
19016;SDS011;9641;51.494;6.670;2023-02-01T14:15:23;17.63;;;2.93;;
19016;SDS011;9641;51.494;6.670;2023-02-01T14:17:52;13.90;;;3.27;;
19016;SDS011;9641;51.494;6.670;2023-02-01T14:26:09;17.83;;;3.20;;
19016;SDS011;9641;51.494;6.670;2023-02-01T14:28:46;13.17;;;3.27;;
19016;SDS011;9641;51.494;6.670;2023-02-01T14:34:19;11.50;;;3.10;;
19016;SDS011;9641;51.494;6.670;2023-02-01T14:36:53;13.50;;;2.70;;
19016;SDS011;9641;51.494;6.670;2023-02-01T14:39:29;12.07;;;2.67;;
19016;SDS011;9641;51.494;6.670;2023-02-01T14:42:04;11.77;;;2.43;;
19016;SDS011;9641;51.494;6.670;2023-02-01T14:44:42;9.80;;;2.37;;
19016;SDS011;9641;51.494;6.670;2023-02-01T14:47:25;14.23;;;2.80;;
19016;SDS011;9641;51.494;6.670;2023-02-01T14:49:55;18.67;;;3.07;;
19016;SDS011;9641;51.494;6.670;2023-02-01T14:52:29;15.00;;;2.40;;
19016;SDS011;9641;51.494;6.670;2023-02-01T14:55:01;18.80;;;3.67;;
19016;SDS011;9641;51.494;6.670;2023-02-01T14:57:32;8.63;;;2.37;;
19016;SDS011;9641;51.494;6.670;2023-02-01T15:00:06;15.90;;;2.40;;
19016;SDS011;9641;51.494;6.670;2023-02-01T15:02:41;15.80;;;2.97;;
19016;SDS011;9641;51.494;6.670;2023-02-01T15:05:25;15.43;;;3.20;;
19016;SDS011;9641;51.494;6.670;2023-02-01T15:07:58;8.90;;;2.40;;
19016;SDS011;9641;51.494;6.670;2023-02-01T15:10:31;16.40;;;3.07;;
19016;SDS011;9641;51.494;6.670;2023-02-01T15:13:05;17.00;;;3.00;;
19016;SDS011;9641;51.494;6.670;2023-02-01T15:15:38;16.00;;;3.40;;
19016;SDS011;9641;51.494;6.670;2023-02-01T15:18:16;10.63;;;2.67;;
19016;SDS011;9641;51.494;6.670;2023-02-01T15:20:43;17.93;;;3.67;;
19016;SDS011;9641;51.494;6.670;2023-02-01T15:23:22;13.93;;;3.23;;
19016;SDS011;9641;51.494;6.670;2023-02-01T15:25:49;13.57;;;3.10;;
19016;SDS011;9641;51.494;6.670;2023-02-01T15:28:17;12.90;;;2.90;;
19016;SDS011;9641;51.494;6.670;2023-02-01T15:30:51;11.43;;;3.43;;
19016;SDS011;9641;51.494;6.670;2023-02-01T15:33:21;17.60;;;3.67;;
19016;SDS011;9641;51.494;6.670;2023-02-01T15:35:49;14.40;;;2.80;;
19016;SDS011;9641;51.494;6.670;2023-02-01T15:38:18;12.93;;;2.97;;
19016;SDS011;9641;51.494;6.670;2023-02-01T15:40:53;16.40;;;2.40;;
19016;SDS011;9641;51.494;6.670;2023-02-01T15:43:22;10.07;;;2.40;;